עמוד ראשי
METAR-TAF:

METAR-TAF

שדות תעופה :

נמל התעופה הבינלאומי ררוטונגה

Rarotonga, איי קוק

קו רוחב: 21-12S, קו אורך: 159-49W, גובה: 7מטר

תצפית מזג אוויר נוכחית

הדו"ח נערך לפני 30דקות, בשעה 09:00 UTC
רוח 3קשר מכיוון דרום, משתנה בין דרום/דרום-מזרח ו דרום-מערב
טמפרטורת 24 צלסיוס
לחות 94%
לחץ 1015 hPa
ראות 10 קילומטר או יותר

METAR: NCRG 290900Z AUTO 19003KT 160V220 9999 NCD 24/23 Q1015

זמן: 23:30 (09:30 UTC)

תחזית

הדו"ח נערך לפני 4 שעות ו 18דקות, בשעה 05:12 UTC
תחזית בתוקף מ 29 ב 06 UTC עד 01 ב 06 UTC
רוח 5קשר מכיוון דרום/דרום-מערב
ראות 10 קילומטר או יותר
מעט עננים בגובה 2500רגל

TAF: NCRG 290512Z 2906/0106 20005KT 9999 FEW025

תצפיות ותחזיות מזג אוויר לגבי יותר מ- 4,000 שדות תעופה ברחבי העולם. דוחות METAR ו- TAF.

התחנות הזמינות מסומנות בנקודות צהובות ואדומות על גבי המפה.

העבר את העכבר לנקודה הצבעונית על מנת לראות את שם התחנה.

לאחר מכן, לחץ כדי לראות את תוכן ואת תחזיות מזג האוויר.

כדי לשנות את המפה: לחץ על הכפתורים הירוקים עם הפלוס השחור כדי להתקרב; על הכפתור הירוק עם המקף כדי להתרחק; או בחיצים הירוקים למפות סמוכות.


METAR-TAF: